Latest Weather Observations for Julia Creek

IDQ60801

Issued at 8:13 pm EST Tuesday 27 February 2024 (issued every 10 minutes, with the page automatically refreshed every 10 minutes)

About weather observations | Map of weather stations | Latest weather observations for QLD | Other Formats
Station Details ID: 029058 Name: JULIA CREEK AIRPORT Lat: -20.67 Lon: 141.72 Height: 122.5 m
Data from the previous 72 hours. | See also: Recent months at Julia Creek
Date/Time
EST
Temp
°C
App
Temp
°C
Dew
Point
°C
Rel
Hum
%
Delta-T
°C
Wind Press
QNH
hPa
Press
MSL
hPa
Rain since
9am
mm
Dir  Spd
km/h
Gust
km/h
Spd
kts
Gust
kts
27/08:00pm 28.1 33.6 25.3 85 2.0 ENE 6 7 3 4 1009.9 1009.0 0.0
27/07:30pm 28.2 34.8 25.2 84 2.1 CALM 0 4 0 2 1009.7 1008.8 0.0
27/07:00pm 28.5 33.4 24.7 80 2.7 E 7 9 4 5 1009.2 1008.3 0.0
27/06:30pm 29.4 33.3 24.3 74 3.6 ENE 11 15 6 8 1008.6 1007.7 0.0
27/06:00pm 29.5 33.6 24.6 75 3.4 NE 11 13 6 7 1008.3 1007.4 0.0
27/05:30pm 29.2 32.8 24.3 75 3.4 NE 13 15 7 8 1008.3 1007.4 0.0
27/05:00pm 29.6 31.7 23.8 71 4.0 NE 19 24 10 13 1008.2 1007.3 0.0
27/04:30pm 30.3 32.0 24.0 69 4.4 NE 22 30 12 16 1008.1 1007.2 0.0
27/04:00pm 30.6 31.9 23.3 65 5.1 NE 22 30 12 16 1008.3 1007.4 0.0
27/03:30pm 30.4 32.0 23.8 68 4.6 ENE 22 28 12 15 1008.7 1007.8 0.0
27/03:00pm 30.2 33.2 24.6 72 3.9 NE 17 22 9 12 1008.8 1007.9 0.0
27/02:30pm 29.6 32.3 24.2 72 3.8 NE 17 24 9 13 1009.2 1008.3 0.0
27/02:00pm 28.9 33.1 24.7 78 2.9 E 11 15 6 8 1009.6 1008.7 0.0
27/01:30pm 28.7 31.1 24.3 77 3.1 E 19 26 10 14 1009.8 1008.9 0.0
27/01:00pm 28.5 30.9 24.3 78 2.9 ENE 19 24 10 13 1010.1 1009.2 0.0
27/12:30pm 28.0 30.5 24.4 81 2.5 E 19 22 10 12 1010.6 1009.7 0.0
27/12:18pm 28.0 30.5 24.4 81 2.5 E 19 24 10 13 1010.8 1009.9 0.0
27/12:00pm 27.6 31.1 24.8 85 2.0 E 15 20 8 11 1011.0 1010.1 0.0
27/11:30am 27.7 31.9 25.3 87 1.7 E 13 20 7 11 1011.1 1010.2 0.0
27/11:26am 27.4 30.8 24.7 85 1.9 ESE 15 20 8 11 1011.1 1010.2 0.0
27/11:00am 26.8 30.1 24.5 87 1.6 E 15 20 8 11 1011.3 1010.4 0.0
27/10:30am 26.4 28.8 23.7 85 1.9 ENE 17 20 9 11 1011.5 1010.6 0.0
27/10:00am 26.1 28.8 24.1 89 1.4 NE 17 20 9 11 1011.8 1010.9 0.0
27/09:30am 25.6 29.4 24.0 91 1.1 NE 11 15 6 8 1011.7 1010.8 0.0
27/09:00am 25.0 28.8 24.0 94 0.7 NE 11 13 6 7 1011.5 1010.6 48.4
27/08:30am 24.6 27.8 23.7 95 0.6 NNE 13 17 7 9 1011.3 1010.4 48.4
27/08:00am 24.3 28.2 23.6 96 0.5 NE 9 11 5 6 1011.2 1010.3 48.4
27/07:30am 24.0 26.9 23.1 95 0.6 NE 13 15 7 8 1010.9 1010.0 48.4
27/07:00am 23.8 27.0 23.0 95 0.5 NE 11 13 6 7 1010.5 1009.6 48.4
27/06:30am 24.1 27.4 23.8 98 0.2 NE 13 15 7 8 1010.3 1009.4 47.0
27/06:00am 23.6 25.8 23.3 98 0.2 E 17 22 9 12 1010.2 1009.3 46.0
27/05:34am 24.3 26.9 24.0 98 0.2 E 17 20 9 11 1010.6 1009.7 45.0
27/05:30am 24.3 26.5 24.0 98 0.2 E 19 22 10 12 1010.6 1009.7 44.8
27/05:26am 24.4 27.1 24.1 98 0.2 E 17 22 9 12 1010.6 1009.7 44.6
27/05:18am 24.5 27.2 24.2 98 0.2 ESE 17 20 9 11 1010.6 1009.7 44.0
27/05:15am 24.5 27.2 24.2 98 0.2 E 17 20 9 11 1010.6 1009.7 43.8
27/05:02am 24.5 28.8 24.2 98 0.2 ESE 9 13 5 7 1010.4 1009.5 41.4
27/05:00am 24.5 28.8 24.2 98 0.2 E 9 13 5 7 1010.4 1009.5 40.0
27/04:30am 24.5 28.8 24.2 98 0.2 ENE 9 13 5 7 1010.3 1009.4 25.6
27/04:15am 24.8 29.2 24.5 98 0.2 E 9 15 5 8 1010.2 1009.3 16.4
27/04:06am 25.0 28.7 24.5 97 0.3 ENE 13 15 7 8 1010.2 1009.3 10.4
27/04:00am 25.1 29.6 24.6 97 0.3 E 9 13 5 7 1010.2 1009.3 5.6
27/03:45am 25.7 31.0 25.2 97 0.4 ESE 7 11 4 6 1010.0 1009.1 1.2
27/03:30am 25.6 30.7 24.9 96 0.5 ESE 7 9 4 5 1009.8 1008.9 1.2
27/03:00am 25.5 30.1 24.8 96 0.5 ESE 9 11 5 6 1009.8 1008.9 1.2
27/02:30am 25.6 29.6 25.1 97 0.3 ESE 13 17 7 9 1010.0 1009.1 1.2
27/02:00am 25.5 31.1 24.8 96 0.5 N 4 9 2 5 1009.9 1009.0 1.2
27/01:34am 25.3 30.3 24.8 97 0.3 N 7 11 4 6 1009.8 1008.9 1.2
27/01:30am 25.2 29.8 24.7 97 0.3 N 9 13 5 7 1009.8 1008.9 1.2
27/01:00am 25.4 29.2 24.7 96 0.5 N 13 17 7 9 1009.4 1008.5 1.2
27/12:30am 25.6 29.1 24.9 96 0.5 NNE 15 20 8 11 1009.7 1008.8 1.2
27/12:00am 25.6 29.4 24.7 95 0.6 NE 13 17 7 9 1010.0 1009.1 1.2
 
Date/Time
EST
Temp
°C
App
Temp
°C
Dew
Point
°C
Rel
Hum
%
Delta-T
°C
Wind Press
QNH
hPa
Press
MSL
hPa
Rain since
9am
mm
Dir  Spd
km/h
Gust
km/h
Spd
kts
Gust
kts
26/11:30pm 26.0 31.8 25.1 95 0.6 W 4 7 2 4 1010.2 1009.3 1.2
26/11:00pm 25.8 30.3 24.6 93 0.8 WNW 9 11 5 6 1010.4 1009.5 1.0
26/10:30pm 25.8 30.8 24.8 94 0.7 NW 7 11 4 6 1010.1 1009.2 0.4
26/10:00pm 25.9 29.1 24.3 91 1.1 N 15 19 8 10 1009.8 1008.9 0.0
26/09:30pm 26.3 29.1 24.3 89 1.4 N 17 20 9 11 1009.6 1008.7 0.0
26/09:00pm 26.4 29.0 23.9 86 1.7 N 17 22 9 12 1009.4 1008.5 0.0
26/08:30pm 26.6 28.4 23.5 83 2.1 N 20 28 11 15 1009.4 1008.5 0.0
26/08:00pm 27.8 29.7 23.8 79 2.8 N 20 28 11 15 1009.0 1008.1 0.0
26/07:30pm 29.7 34.3 25.4 78 3.0 N 11 24 6 13 1008.4 1007.5 0.0
26/07:00pm 30.1 35.9 26.1 79 2.9 SW 7 9 4 5 1007.7 1006.8 0.0
26/06:30pm 31.1 35.2 25.2 71 4.2 SW 13 17 7 9 1007.2 1006.3 0.0
26/06:00pm 31.3 34.3 24.7 68 4.7 SW 17 22 9 12 1006.8 1005.9 0.0
26/05:30pm 31.9 34.6 24.7 65 5.1 WSW 19 24 10 13 1006.7 1005.8 0.0
26/05:00pm 31.8 34.6 25.2 68 4.7 WSW 20 24 11 13 1006.8 1005.9 0.0
26/04:30pm 30.7 33.2 24.4 69 4.4 SSW 19 26 10 14 1007.0 1006.1 0.0
26/04:00pm 32.8 35.0 24.8 62 5.7 SSE 22 30 12 16 1006.8 1005.9 0.0
26/03:30pm 34.6 39.8 25.1 57 6.8 ENE 7 13 4 7 1006.9 1006.0 0.0
26/03:00pm 33.6 38.6 24.8 60 6.2 NNE 7 13 4 7 1007.3 1006.4 0.0
26/02:30pm 34.3 39.3 24.5 56 6.9 ESE 6 13 3 7 1007.9 1007.0 0.0
26/02:00pm 34.2 38.0 24.7 57 6.7 ENE 13 24 7 13 1008.5 1007.6 0.0
26/01:30pm 34.7 39.8 25.5 59 6.6 ENE 9 13 5 7 1008.9 1008.0 0.0
26/01:00pm 33.4 37.5 24.6 60 6.2 E 11 17 6 9 1009.5 1008.6 0.0
26/12:30pm 33.0 37.6 24.7 61 5.9 E 9 15 5 8 1009.7 1008.8 0.0
26/12:00pm 32.7 37.6 25.2 64 5.3 ENE 9 20 5 11 1010.1 1009.2 0.0
26/11:30am 32.4 36.2 24.7 64 5.4 ENE 13 19 7 10 1010.3 1009.4 0.0
26/11:00am 32.0 36.4 25.6 69 4.6 NE 13 17 7 9 1010.6 1009.7 0.0
26/10:30am 32.3 36.5 25.9 69 4.6 NNE 15 20 8 11 1010.8 1009.9 0.0
26/10:00am 31.4 35.3 25.5 71 4.2 ENE 15 20 8 11 1010.8 1009.9 0.0
26/09:30am 30.7 34.5 25.3 73 3.8 ENE 15 19 8 10 1011.0 1010.1 0.0
26/09:00am 29.9 33.0 24.8 74 3.6 ENE 17 22 9 12 1010.9 1010.0 0.0
26/08:30am 28.0 30.6 24.6 82 2.4 E 19 24 10 13 1010.8 1009.9 0.0
26/08:00am 28.0 31.7 24.6 82 2.4 ESE 13 17 7 9 1010.6 1009.7 0.0
26/07:30am 25.8 30.1 24.2 91 1.1 SE 9 11 5 6 1010.5 1009.6 0.0
26/07:00am 25.2 29.3 24.0 93 0.8 SE 9 11 5 6 1010.3 1009.4 0.0
26/06:30am 25.0 29.0 23.8 93 0.8 SSE 9 11 5 6 1010.1 1009.2 0.0
26/06:00am 24.8 28.3 23.6 93 0.8 SE 11 13 6 7 1009.7 1008.8 0.0
26/05:30am 25.1 28.7 23.7 92 1.0 SE 11 13 6 7 1009.6 1008.7 0.0
26/05:00am 25.1 28.7 23.7 92 1.0 SE 11 13 6 7 1009.6 1008.7 0.0
26/04:30am 24.9 28.5 23.7 93 0.8 SE 11 11 6 6 1009.4 1008.5 0.0
26/04:00am 25.0 28.9 23.6 92 1.0 SE 9 13 5 7 1009.3 1008.4 0.0
26/03:30am 25.0 28.5 23.6 92 1.0 SE 11 11 6 6 1009.3 1008.4 0.0
26/03:00am 24.9 28.9 23.7 93 0.8 ESE 9 11 5 6 1009.3 1008.4 0.0
26/02:30am 25.0 28.4 23.4 91 1.1 SE 11 13 6 7 1009.4 1008.5 0.0
26/02:00am 25.1 28.9 23.5 91 1.1 SE 9 11 5 6 1009.6 1008.7 0.0
26/01:30am 25.0 28.3 23.2 90 1.2 SE 11 13 6 7 1009.8 1008.9 0.0
26/01:00am 25.1 28.6 23.5 91 1.1 SE 11 13 6 7 1009.8 1008.9 0.0
26/12:30am 25.1 28.2 23.5 91 1.1 SE 13 13 7 7 1010.1 1009.2 0.0
26/12:00am 25.1 28.9 23.5 91 1.1 SE 9 13 5 7 1010.4 1009.5 0.0
 
Date/Time
EST
Temp
°C
App
Temp
°C
Dew
Point
°C
Rel
Hum
%
Delta-T
°C
Wind Press
QNH
hPa
Press
MSL
hPa
Rain since
9am
mm
Dir  Spd
km/h
Gust
km/h
Spd
kts
Gust
kts
25/11:30pm 25.3 29.1 23.5 90 1.2 SE 9 11 5 6 1010.5 1009.6 0.0
25/11:00pm 25.7 28.8 23.6 88 1.4 SE 13 15 7 8 1010.5 1009.6 0.0
25/10:30pm 26.4 29.5 23.5 84 2.0 SE 13 17 7 9 1010.3 1009.4 0.0
25/10:00pm 26.8 30.2 24.1 85 1.9 ESE 13 17 7 9 1010.1 1009.2 0.0
25/09:30pm 26.3 30.1 24.0 87 1.6 SSE 11 13 6 7 1009.7 1008.8 0.0
25/09:00pm 26.7 30.3 23.8 84 2.0 ESE 11 15 6 8 1009.4 1008.5 0.0
25/08:30pm 27.3 30.3 23.3 79 2.7 SSE 13 15 7 8 1009.2 1008.3 0.0
25/08:00pm 27.9 30.5 23.3 76 3.2 SE 15 17 8 9 1008.9 1008.0 0.0
25/07:30pm 28.7 30.4 23.1 71 3.8 SSE 19 22 10 12 1008.2 1007.3 0.0
25/07:00pm 29.6 31.8 23.3 69 4.4 SE 17 20 9 11 1007.9 1007.0 0.0
25/06:30pm 30.8 32.6 23.2 64 5.2 SE 19 24 10 13 1007.6 1006.7 0.0
25/06:00pm 32.4 34.1 23.4 59 6.3 SE 20 30 11 16 1007.3 1006.4 0.0
25/05:30pm 32.6 33.9 22.4 55 7.0 SSE 19 26 10 14 1007.1 1006.2 0.0
25/05:00pm 32.9 34.0 23.0 56 6.9 SE 22 30 12 16 1006.9 1006.0 0.0
25/04:30pm 32.8 33.5 22.3 54 7.2 SSE 22 30 12 16 1006.9 1006.0 0.0
25/04:00pm 32.3 33.4 22.4 56 6.8 SE 20 28 11 15 1007.1 1006.2 0.0
25/03:30pm 32.0 33.1 23.0 59 6.2 SSE 22 28 12 15 1007.5 1006.6 0.0
25/03:00pm 33.4 36.0 24.0 58 6.6 SSE 17 22 9 12 1007.9 1007.0 0.0
25/02:30pm 31.8 34.0 23.3 60 5.9 SE 17 20 9 11 1008.4 1007.5 0.0
25/02:00pm 33.3 35.7 23.6 56 6.8 ESE 17 22 9 12 1008.7 1007.8 0.0
25/01:30pm 32.1 34.4 22.8 58 6.4 ESE 15 20 8 11 1009.2 1008.3 0.0
25/01:00pm 32.3 36.1 24.1 62 5.8 SE 11 19 6 10 1009.5 1008.6 0.0
25/12:30pm 31.1 34.3 23.7 64 5.1 E 13 19 7 10 1009.9 1009.0 0.0
25/12:00pm 31.5 34.0 23.1 61 5.8 ESE 15 24 8 13 1010.2 1009.3 0.0
25/11:30am 30.5 33.5 22.7 63 5.3 SE 11 19 6 10 1010.5 1009.6 0.0
25/11:00am 29.9 32.1 21.8 62 5.5 ESE 13 20 7 11 1010.7 1009.8 0.0
25/10:30am 29.1 30.8 22.3 66 4.6 SE 17 24 9 13 1010.8 1009.9 0.0
25/10:00am 28.8 30.5 22.3 68 4.4 ESE 17 24 9 13 1011.0 1010.1 0.0
25/09:30am 28.0 28.8 21.8 69 4.2 ESE 20 33 11 18 1011.0 1010.1 0.0
25/09:00am 27.1 27.2 21.8 73 3.6 ESE 24 30 13 16 1010.7 1009.8 0.0
25/08:30am 25.9 26.2 21.6 77 2.9 ESE 22 28 12 15 1010.6 1009.7 0.0
25/08:00am 24.7 25.2 21.2 81 2.3 SE 20 26 11 14 1010.3 1009.4 0.0
25/07:30am 23.5 24.2 21.2 87 1.5 SE 19 26 10 14 1010.0 1009.1 0.0
25/07:00am 22.2 23.9 21.0 93 0.8 SE 13 17 7 9 1009.7 1008.8 0.0
25/06:30am 21.4 22.8 20.4 94 0.6 SSE 13 17 7 9 1009.5 1008.6 0.0
25/06:00am 21.5 23.0 20.5 94 0.6 SE 13 15 7 8 1008.9 1008.0 0.0
25/05:30am 21.6 22.7 20.4 93 0.8 SSE 15 19 8 10 1008.9 1008.0 0.0
25/05:00am 21.6 22.3 20.4 93 0.8 SSE 17 20 9 11 1009.0 1008.1 0.0
25/04:30am 21.7 23.2 20.5 93 0.8 SE 13 15 7 8 1008.7 1007.8 0.0
25/04:00am 21.9 23.5 20.7 93 0.8 SSE 13 17 7 9 1008.7 1007.8 0.0
25/03:30am 22.0 23.6 20.8 93 0.8 SSE 13 17 7 9 1008.8 1007.9 0.0
25/03:00am 22.2 23.9 21.0 93 0.8 SE 13 15 7 8 1008.8 1007.9 0.0
25/02:30am 22.6 24.4 21.2 92 0.9 SE 13 17 7 9 1008.9 1008.0 0.0
25/02:00am 22.6 24.9 21.4 93 0.8 SE 11 15 6 8 1009.3 1008.4 0.0
25/01:30am 23.2 24.8 21.5 90 1.1 SE 15 19 8 10 1009.7 1008.8 0.0
25/01:00am 23.3 25.3 21.6 90 1.1 SE 13 15 7 8 1010.0 1009.1 0.0
25/12:30am 23.4 25.5 21.7 90 1.1 SE 13 15 7 8 1010.1 1009.2 0.0
25/12:00am 23.8 25.4 21.5 87 1.5 SE 15 17 8 9 1010.3 1009.4 0.0
 
Date/Time
EST
Temp
°C
App
Temp
°C
Dew
Point
°C
Rel
Hum
%
Delta-T
°C
Wind Press
QNH
hPa
Press
MSL
hPa
Rain since
9am
mm
Dir  Spd
km/h
Gust
km/h
Spd
kts
Gust
kts
24/11:30pm 24.1 26.1 21.6 86 1.7 ESE 13 13 7 7 1010.6 1009.7 0.0
24/11:00pm 25.0 26.9 21.3 80 2.5 E 13 17 7 9 1010.7 1009.8 0.0
24/10:30pm 24.9 26.9 21.6 82 2.2 ESE 13 19 7 10 1010.6 1009.7 0.0
24/10:00pm 25.0 26.7 21.7 82 2.2 SE 15 17 8 9 1010.6 1009.7 0.0
24/09:30pm 25.4 27.5 21.7 80 2.5 ESE 13 15 7 8 1010.3 1009.4 0.0
24/09:00pm 26.1 27.7 21.5 76 3.1 ESE 15 19 8 10 1009.9 1009.0 0.0
24/08:30pm 26.5 27.9 21.9 76 3.1 ESE 17 20 9 11 1009.3 1008.4 0.0

Other formats

Comma delimited format used in spreadsheet applications
http://www.bom.gov.au/fwo/IDQ60801/IDQ60801.94337.axf

JavaScript Object Notation format (JSON) in row-major order
http://www.bom.gov.au/fwo/IDQ60801/IDQ60801.94337.json

Data quality

Most of these data are generated automatically and are frequently updated. Quality checks on data are not normally performed. It is possible for incorrect values to appear. Refer to information at About Latest Weather Observations and please check the disclaimer before using these data.